createdAt,value
2018-06-21T00:01:16.531Z,100792.55
2018-06-21T00:04:19.675Z,100786.05
2018-06-21T00:07:22.807Z,100782.67
2018-06-21T00:10:25.983Z,100782.33
2018-06-21T00:13:29.102Z,100784.96
2018-06-21T00:16:32.250Z,100782.24
2018-06-21T00:19:35.438Z,100767.78
2018-06-21T00:22:38.594Z,100766.25
2018-06-21T00:25:41.747Z,100762.20
2018-06-21T00:28:44.870Z,100757.98
2018-06-21T00:31:48.059Z,100763.31
2018-06-21T00:34:51.204Z,100754.34
2018-06-21T00:37:54.447Z,100749.41
2018-06-21T00:40:57.703Z,100749.69
2018-06-21T00:44:00.846Z,100745.96
2018-06-21T00:47:03.984Z,100737.19
2018-06-21T00:50:07.122Z,100730.98
2018-06-21T00:53:10.373Z,100728.87
2018-06-21T00:56:16.610Z,100723.15
2018-06-21T00:59:19.779Z,100717.91
2018-06-21T01:02:22.899Z,100711.44
2018-06-21T01:05:26.027Z,100707.38
2018-06-21T01:08:29.142Z,100709.30
2018-06-21T01:11:32.311Z,100710.78
2018-06-21T01:14:35.492Z,100716.09
2018-06-21T01:17:38.594Z,100711.69
2018-06-21T01:20:41.707Z,100710.52
2018-06-21T01:23:44.923Z,100705.59
2018-06-21T01:26:48.079Z,100692.00
2018-06-21T01:29:51.233Z,100684.19
2018-06-21T01:32:54.374Z,100681.67
2018-06-21T01:35:57.525Z,100670.47
2018-06-21T01:39:00.861Z,100670.86
2018-06-21T01:42:03.990Z,100676.20
2018-06-21T01:45:07.135Z,100672.02
2018-06-21T01:48:10.276Z,100673.05
2018-06-21T01:51:13.394Z,100665.92
2018-06-21T01:54:16.553Z,100667.27
2018-06-21T01:57:19.659Z,100665.30
2018-06-21T02:00:22.773Z,100652.75
2018-06-21T02:03:25.932Z,100652.10
2018-06-21T02:06:29.233Z,100648.50
2018-06-21T02:09:32.440Z,100650.30
2018-06-21T02:12:35.654Z,100643.90
2018-06-21T02:15:38.804Z,100643.20
2018-06-21T02:18:42.070Z,100645.23
2018-06-21T02:21:45.296Z,100643.27
2018-06-21T02:24:48.448Z,100638.03
2018-06-21T02:27:51.591Z,100636.06
2018-06-21T02:30:54.727Z,100631.95
2018-06-21T02:33:57.847Z,100633.48
2018-06-21T02:37:00.963Z,100627.58
2018-06-21T02:40:04.176Z,100627.55
2018-06-21T02:43:07.575Z,100620.47
2018-06-21T02:46:10.722Z,100613.34
2018-06-21T02:49:13.919Z,100619.43
2018-06-21T02:52:17.034Z,100611.00
2018-06-21T02:55:20.195Z,100601.62
2018-06-21T02:58:23.324Z,100598.34
2018-06-21T03:01:26.442Z,100588.09
2018-06-21T03:04:29.595Z,100589.77
2018-06-21T03:07:32.730Z,100590.41
2018-06-21T03:10:35.944Z,100576.72
2018-06-21T03:13:39.151Z,100588.05
2018-06-21T03:16:42.249Z,100576.52
2018-06-21T03:19:45.423Z,100579.55
2018-06-21T03:22:48.553Z,100576.14
2018-06-21T03:25:51.683Z,100571.13
2018-06-21T03:28:54.830Z,100570.48
2018-06-21T03:31:58.051Z,100568.95
2018-06-21T03:35:01.209Z,100570.77
2018-06-21T03:38:04.350Z,100562.78
2018-06-21T03:41:07.502Z,100564.45
2018-06-21T03:44:10.682Z,100556.88
2018-06-21T03:47:13.845Z,100553.28
2018-06-21T03:50:16.973Z,100548.09
2018-06-21T03:53:20.097Z,100544.63
2018-06-21T03:56:23.217Z,100549.20
2018-06-21T03:59:26.356Z,100549.39
2018-06-21T04:02:29.457Z,100549.56
2018-06-21T04:05:32.674Z,100545.21
2018-06-21T04:08:35.796Z,100540.05
2018-06-21T04:11:39.144Z,100532.30
2018-06-21T04:14:42.261Z,100531.28
2018-06-21T04:17:45.412Z,100529.95
2018-06-21T04:20:48.656Z,100524.39
2018-06-21T04:23:51.800Z,100521.22
2018-06-21T04:26:55.015Z,100521.81
2018-06-21T04:29:58.194Z,100530.66
2018-06-21T04:33:02.033Z,100531.86
2018-06-21T04:36:05.287Z,100529.33
2018-06-21T04:39:09.148Z,100537.45
2018-06-21T04:42:12.390Z,100530.68
2018-06-21T04:45:15.634Z,100527.17
2018-06-21T04:48:18.754Z,100526.49
2018-06-21T04:51:21.931Z,100518.89
2018-06-21T04:54:25.199Z,100515.77
2018-06-21T04:57:28.373Z,100506.66
2018-06-21T05:00:31.535Z,100500.92
2018-06-21T05:03:34.810Z,100501.09
2018-06-21T05:06:38.025Z,100499.94
2018-06-21T05:09:41.141Z,100493.36
2018-06-21T05:12:44.376Z,100485.58
2018-06-21T05:15:47.502Z,100478.16
2018-06-21T05:18:50.680Z,100472.57
2018-06-21T05:21:53.851Z,100466.83
2018-06-21T05:24:57.039Z,100464.63
2018-06-21T05:28:00.197Z,100460.91
2018-06-21T05:31:03.442Z,100467.52
2018-06-21T05:34:06.629Z,100455.86
2018-06-21T05:37:09.734Z,100469.06
2018-06-21T05:40:24.545Z,100471.48
2018-06-21T05:43:27.722Z,100467.06
2018-06-21T05:46:30.962Z,100466.38
2018-06-21T05:49:34.157Z,100460.46
2018-06-21T05:52:37.333Z,100452.13
2018-06-21T05:55:40.506Z,100449.91
2018-06-21T05:58:43.670Z,100447.03
2018-06-21T06:01:46.865Z,100449.73
2018-06-21T06:04:50.081Z,100436.81
2018-06-21T06:07:53.307Z,100429.35
2018-06-21T06:10:56.525Z,100422.08
2018-06-21T06:13:59.803Z,100429.17
2018-06-21T06:17:03.042Z,100423.87
2018-06-21T06:20:06.302Z,100416.22
2018-06-21T06:23:09.397Z,100419.23
2018-06-21T06:26:12.543Z,100405.94
2018-06-21T06:29:15.710Z,100418.31
2018-06-21T06:32:19.182Z,100414.55
2018-06-21T06:35:26.691Z,100396.19
2018-06-21T06:38:29.923Z,100397.01
2018-06-21T06:41:33.115Z,100398.47
2018-06-21T06:44:36.311Z,100389.27
2018-06-21T06:47:39.622Z,100384.84
2018-06-21T06:50:42.799Z,100379.53
2018-06-21T06:53:45.988Z,100371.18
2018-06-21T06:56:49.277Z,100368.96
2018-06-21T06:59:52.556Z,100368.05
2018-06-21T07:02:55.702Z,100360.04
2018-06-21T07:05:58.897Z,100358.69
2018-06-21T07:09:02.082Z,100352.89
2018-06-21T07:12:05.230Z,100348.96
2018-06-21T07:15:08.421Z,100340.06
2018-06-21T07:18:11.612Z,100333.27
2018-06-21T07:21:14.762Z,100326.44
2018-06-21T07:24:17.938Z,100321.50
2018-06-21T07:27:21.117Z,100311.42
2018-06-21T07:30:24.801Z,100303.65
2018-06-21T07:33:28.524Z,100304.38
2018-06-21T07:36:31.742Z,100290.97
2018-06-21T07:39:34.911Z,100284.53
2018-06-21T07:42:38.227Z,100278.86
2018-06-21T07:45:41.440Z,100277.69
2018-06-21T07:48:45.976Z,100261.95
2018-06-21T07:51:51.272Z,100261.34
2018-06-21T07:54:56.037Z,100250.67
2018-06-21T07:58:00.425Z,100240.59
2018-06-21T08:01:04.315Z,100242.86
2018-06-21T08:04:11.161Z,100220.45
2018-06-21T08:07:15.737Z,100220.10
2018-06-21T08:10:19.049Z,100222.69
2018-06-21T08:13:23.582Z,100219.47
2018-06-21T08:16:27.428Z,100213.08
2018-06-21T08:19:30.664Z,100213.21
2018-06-21T08:22:36.523Z,100201.72
2018-06-21T08:25:40.045Z,100202.69
2018-06-21T08:28:50.072Z,100188.55
2018-06-21T08:31:54.593Z,100190.04
2018-06-21T08:34:58.184Z,100180.05
2018-06-21T08:38:01.759Z,100176.48
2018-06-21T08:41:07.661Z,100169.35
2018-06-21T08:44:11.606Z,100164.02
2018-06-21T08:47:15.109Z,100167.67
2018-06-21T08:50:18.986Z,100166.31
2018-06-21T08:53:23.504Z,100152.34
2018-06-21T08:56:27.753Z,100154.63
2018-06-21T08:59:31.430Z,100141.03
2018-06-21T09:02:35.989Z,100150.58
2018-06-21T09:05:40.699Z,100146.88
2018-06-21T09:08:46.013Z,100144.16
2018-06-21T09:11:50.294Z,100127.84
2018-06-21T09:14:55.010Z,100130.09
2018-06-21T09:17:59.727Z,100123.15
2018-06-21T09:21:05.360Z,100109.54
2018-06-21T09:24:09.166Z,100103.91
2018-06-21T09:27:14.488Z,100101.58
2018-06-21T09:30:18.075Z,100091.87
2018-06-21T09:33:22.689Z,100079.70
2018-06-21T09:36:26.438Z,100070.70
2018-06-21T09:39:35.741Z,100075.30
2018-06-21T09:42:44.394Z,100068.57
2018-06-21T09:45:53.045Z,100067.59
2018-06-21T09:48:56.350Z,100059.70
2018-06-21T09:52:04.672Z,100041.20
2018-06-21T09:55:07.957Z,100040.73
2018-06-21T09:58:11.608Z,100031.55
2018-06-21T10:01:15.460Z,100037.92
2018-06-21T10:04:20.070Z,100043.16
2018-06-21T10:07:24.866Z,100028.71
2018-06-21T10:10:29.167Z,100030.36
2018-06-21T10:13:32.886Z,100026.59
2018-06-21T10:16:36.077Z,100032.03
2018-06-21T10:19:40.702Z,100009.55
2018-06-21T10:22:43.873Z,100015.32
2018-06-21T10:25:47.233Z,100009.02
2018-06-21T10:28:50.499Z,100014.29
2018-06-21T10:31:53.836Z,99999.84
2018-06-21T10:35:01.884Z,100009.63
2018-06-21T10:38:05.103Z,100019.11
2018-06-21T10:41:08.321Z,99999.18
2018-06-21T10:44:11.529Z,100012.73
2018-06-21T10:47:14.757Z,100018.47
2018-06-21T10:50:18.016Z,100114.67
2018-06-21T10:53:21.214Z,100144.91
2018-06-21T10:56:24.546Z,100160.07
2018-06-21T10:59:27.765Z,100180.34
2018-06-21T11:02:30.920Z,100203.77
2018-06-21T11:05:34.127Z,100211.92
2018-06-21T11:08:37.348Z,100212.20
2018-06-21T11:11:40.521Z,100247.42
2018-06-21T11:14:44.639Z,100263.52
2018-06-21T11:17:47.830Z,100288.48
2018-06-21T11:20:51.014Z,100268.98
2018-06-21T11:23:54.208Z,100298.62
2018-06-21T11:26:57.529Z,100315.50
2018-06-21T11:30:00.738Z,100314.47
2018-06-21T11:33:04.111Z,100322.48
2018-06-21T11:36:07.412Z,100335.77
2018-06-21T11:39:11.339Z,100339.66
2018-06-21T11:42:14.621Z,100329.88
2018-06-21T11:45:17.860Z,100321.44
2018-06-21T11:48:21.263Z,100335.72
2018-06-21T11:51:24.727Z,100337.33
2018-06-21T11:54:28.001Z,100357.50
2018-06-21T11:57:31.234Z,100360.08
2018-06-21T12:00:34.424Z,100390.28
2018-06-21T12:03:37.990Z,100390.28
2018-06-21T12:06:41.407Z,100418.79
2018-06-21T12:09:45.014Z,100408.11
2018-06-21T12:12:53.058Z,100433.41
2018-06-21T12:15:56.988Z,100438.89
2018-06-21T12:19:02.247Z,100470.50
2018-06-21T12:22:05.692Z,100476.72
2018-06-21T12:25:11.436Z,100462.09
2018-06-21T12:28:20.265Z,100467.06
2018-06-21T12:31:25.035Z,100494.58
2018-06-21T12:34:30.976Z,100480.13
2018-06-21T12:37:35.822Z,100508.14
2018-06-21T12:40:39.660Z,100500.86
2018-06-21T12:43:43.626Z,100521.77
2018-06-21T12:46:47.181Z,100553.38
2018-06-21T12:49:50.564Z,100555.08
2018-06-21T12:52:54.113Z,100539.26
2018-06-21T12:55:57.430Z,100525.37
2018-06-21T12:59:02.416Z,100510.24
2018-06-21T13:02:06.277Z,100534.14
2018-06-21T13:05:09.733Z,100513.59
2018-06-21T13:08:18.735Z,100529.55
2018-06-21T13:11:41.308Z,100533.52
2018-06-21T13:14:44.547Z,100543.67
2018-06-21T13:17:47.973Z,100554.73
2018-06-21T13:20:52.278Z,100545.70
2018-06-21T13:23:55.587Z,100528.59
2018-06-21T13:26:58.935Z,100513.20
2018-06-21T13:30:02.694Z,100511.98
2018-06-21T13:33:06.350Z,100514.97
2018-06-21T13:36:10.698Z,100517.66
2018-06-21T13:39:14.406Z,100519.95
2018-06-21T13:42:18.194Z,100527.16
2018-06-21T13:45:22.504Z,100529.38
2018-06-21T13:48:25.879Z,100549.02
2018-06-21T13:51:29.756Z,100531.54
2018-06-21T13:54:33.044Z,100554.41
2018-06-21T13:57:36.284Z,100540.45
2018-06-21T14:00:39.672Z,100539.66
2018-06-21T14:03:42.934Z,100547.75
2018-06-21T14:06:48.442Z,100554.85
2018-06-21T14:09:52.861Z,100586.49
2018-06-21T14:12:56.776Z,100605.98
2018-06-21T14:16:00.240Z,100591.89
2018-06-21T14:19:05.654Z,100602.43
2018-06-21T14:22:09.693Z,100595.62
2018-06-21T14:25:14.174Z,100609.02
2018-06-21T14:28:18.176Z,100619.89
2018-06-21T14:31:23.084Z,100634.14
2018-06-21T14:34:26.762Z,100637.33
2018-06-21T14:37:30.618Z,100617.05
2018-06-21T14:40:35.352Z,100634.16
2018-06-21T14:43:39.169Z,100632.55
2018-06-21T14:46:42.766Z,100652.97
2018-06-21T14:49:46.969Z,100643.61
2018-06-21T14:52:50.803Z,100629.59
2018-06-21T14:55:54.047Z,100612.63
2018-06-21T14:58:57.453Z,100615.83
2018-06-21T15:02:00.771Z,100623.42
2018-06-21T15:05:04.210Z,100622.91
2018-06-21T15:08:07.584Z,100615.95
2018-06-21T15:11:11.039Z,100615.30
2018-06-21T15:14:14.995Z,100618.91
2018-06-21T15:17:18.366Z,100614.40
2018-06-21T15:20:21.759Z,100611.55
2018-06-21T15:23:25.327Z,100599.95
2018-06-21T15:26:29.870Z,100623.06
2018-06-21T15:29:33.186Z,100637.50
2018-06-21T15:32:36.557Z,100617.05
2018-06-21T15:35:39.878Z,100592.40
2018-06-21T15:38:43.399Z,100630.35
2018-06-21T15:41:46.725Z,100639.38
2018-06-21T15:44:50.539Z,100640.44
2018-06-21T15:47:55.188Z,100625.62
2018-06-21T15:50:58.833Z,100626.61
2018-06-21T15:54:06.389Z,100628.16
2018-06-21T15:57:13.712Z,100634.55
2018-06-21T16:00:17.797Z,100625.96
2018-06-21T16:03:26.594Z,100629.03
2018-06-21T16:06:31.979Z,100621.71
2018-06-21T16:09:37.324Z,100630.22
2018-06-21T16:12:41.578Z,100624.86
2018-06-21T16:15:47.459Z,100637.50
2018-06-21T16:18:52.446Z,100636.66
2018-06-21T16:21:58.805Z,100646.09
2018-06-21T16:25:03.859Z,100654.69
2018-06-21T16:28:09.267Z,100653.76
2018-06-21T16:31:13.815Z,100654.36
2018-06-21T16:34:18.429Z,100653.79
2018-06-21T16:37:25.558Z,100674.82
2018-06-21T16:40:30.676Z,100671.00
2018-06-21T16:43:34.359Z,100676.16
2018-06-21T16:46:37.990Z,100679.98
2018-06-21T16:49:49.980Z,100678.86
2018-06-21T16:52:54.198Z,100691.97
2018-06-21T16:55:59.030Z,100694.09
2018-06-21T16:59:02.886Z,100703.99
2018-06-21T17:02:07.980Z,100704.73
2018-06-21T17:05:11.742Z,100699.05
2018-06-21T17:11:28.703Z,100705.30
2018-06-21T17:14:34.398Z,100721.59
2018-06-21T17:18:02.446Z,100728.54
2018-06-21T17:21:06.959Z,100726.71
2018-06-21T17:24:10.825Z,100761.53
2018-06-21T17:27:15.079Z,100717.63
2018-06-21T17:30:23.451Z,100724.70
2018-06-21T17:33:29.453Z,100734.81
2018-06-21T17:36:35.467Z,100748.94
2018-06-21T17:39:39.320Z,100741.09
2018-06-21T17:42:45.673Z,100744.70
2018-06-21T17:45:49.556Z,100741.89
2018-06-21T17:48:53.550Z,100758.83
2018-06-21T17:51:58.715Z,100788.84
2018-06-21T17:55:03.012Z,100772.27
2018-06-21T17:58:08.355Z,100775.05
2018-06-21T18:01:13.808Z,100785.46
2018-06-21T18:04:18.745Z,100784.10
2018-06-21T18:07:22.587Z,100781.94
2018-06-21T18:10:26.944Z,100791.38
2018-06-21T18:13:30.963Z,100784.52
2018-06-21T18:16:35.458Z,100788.13
2018-06-21T18:19:44.710Z,100791.28
2018-06-21T18:22:49.636Z,100811.80
2018-06-21T18:25:53.525Z,100809.84
2018-06-21T18:28:57.361Z,100817.81
2018-06-21T18:32:01.444Z,100819.77
2018-06-21T18:35:05.336Z,100818.66
2018-06-21T18:38:10.555Z,100826.12
2018-06-21T18:41:14.742Z,100833.78
2018-06-21T18:44:19.075Z,100825.13
2018-06-21T18:47:22.941Z,100833.94
2018-06-21T18:50:27.289Z,100846.77
2018-06-21T18:53:31.113Z,100851.50
2018-06-21T18:56:34.835Z,100841.89
2018-06-21T18:59:38.758Z,100845.77
2018-06-21T19:02:43.845Z,100843.56
2018-06-21T19:05:48.966Z,100844.09
2018-06-21T19:11:04.624Z,100853.84
2018-06-21T19:14:08.772Z,100862.52
2018-06-21T19:17:13.026Z,100883.63
2018-06-21T19:20:17.137Z,100875.77
2018-06-21T19:23:20.746Z,100853.95
2018-06-21T19:26:26.681Z,100879.19
2018-06-21T19:29:30.577Z,100892.48
2018-06-21T19:32:34.428Z,100889.67
2018-06-21T19:35:38.028Z,100902.31
2018-06-21T19:38:41.657Z,100906.70
2018-06-21T19:41:45.508Z,100916.20
2018-06-21T19:44:55.031Z,100912.81
2018-06-21T19:48:18.854Z,100914.58
2018-06-21T19:51:22.625Z,100917.48
2018-06-21T19:54:26.395Z,100913.54
2018-06-21T19:57:30.341Z,100915.21
2018-06-21T20:00:33.929Z,100921.08
2018-06-21T20:03:37.491Z,100930.57
2018-06-21T20:06:41.730Z,100921.05
2018-06-21T20:09:45.872Z,100916.38
2018-06-21T20:12:49.518Z,100921.12
2018-06-21T20:15:54.642Z,100925.24
2018-06-21T20:19:02.557Z,100924.23
2018-06-21T20:22:06.581Z,100932.84
2018-06-21T20:25:10.295Z,100941.19
2018-06-21T20:28:13.922Z,100942.73
2018-06-21T20:31:18.159Z,100945.31
2018-06-21T20:34:21.767Z,100946.17
2018-06-21T20:37:25.572Z,100950.81
2018-06-21T20:40:30.949Z,100956.67
2018-06-21T20:43:34.505Z,100956.26
2018-06-21T20:46:37.902Z,100963.88
2018-06-21T20:49:41.437Z,100968.78
2018-06-21T20:52:45.602Z,100968.52
2018-06-21T20:55:50.985Z,100971.36
2018-06-21T20:58:54.581Z,100976.19
2018-06-21T21:01:58.096Z,100977.26
2018-06-21T21:05:05.058Z,100973.56
2018-06-21T21:08:08.627Z,100965.92
2018-06-21T21:11:11.921Z,100974.38
2018-06-21T21:14:17.483Z,100976.31
2018-06-21T21:17:20.825Z,100969.77
2018-06-21T21:20:24.759Z,100969.41
2018-06-21T21:23:28.131Z,100959.58
2018-06-21T21:26:31.403Z,100965.17
2018-06-21T21:29:35.521Z,100959.48
2018-06-21T21:32:38.908Z,100966.52
2018-06-21T21:35:43.034Z,100962.87
2018-06-21T21:38:46.358Z,100965.91
2018-06-21T21:41:49.949Z,100961.28
2018-06-21T21:44:53.290Z,100957.14
2018-06-21T21:47:57.280Z,100957.94
2018-06-21T21:51:01.364Z,100967.89
2018-06-21T21:54:06.155Z,100964.72
2018-06-21T21:57:09.495Z,100965.91
2018-06-21T22:00:25.249Z,100976.82
2018-06-21T22:03:30.474Z,100956.12
2018-06-21T22:06:35.816Z,100967.36
2018-06-21T22:09:39.505Z,100967.12
2018-06-21T22:12:46.452Z,100963.02
2018-06-21T22:15:50.207Z,100966.66
2018-06-21T22:18:53.578Z,100955.25
2018-06-21T22:21:56.975Z,100962.81
2018-06-21T22:25:00.323Z,100957.03
2018-06-21T22:28:03.662Z,100956.05
2018-06-21T22:31:06.874Z,100946.53
2018-06-21T22:34:10.376Z,100945.69
2018-06-21T22:37:13.778Z,100950.07
2018-06-21T22:40:16.999Z,100952.21
2018-06-21T22:43:20.379Z,100959.20
2018-06-21T22:46:23.769Z,100956.80
2018-06-21T22:49:26.972Z,100952.48
2018-06-21T22:52:30.260Z,100944.72
2018-06-21T22:55:33.543Z,100956.80
2018-06-21T22:58:36.798Z,100956.79
2018-06-21T23:01:40.094Z,100958.30
2018-06-21T23:04:43.332Z,100964.00
2018-06-21T23:07:46.627Z,100957.69
2018-06-21T23:10:49.912Z,100959.99
2018-06-21T23:13:53.249Z,100959.72
2018-06-21T23:16:58.791Z,100960.55
2018-06-21T23:20:02.018Z,100964.28
2018-06-21T23:23:05.468Z,100958.09
2018-06-21T23:26:08.676Z,100961.26
2018-06-21T23:29:11.915Z,100956.16
2018-06-21T23:32:15.117Z,100963.79
2018-06-21T23:35:18.303Z,100962.47
2018-06-21T23:38:21.521Z,100962.47
2018-06-21T23:41:24.703Z,100959.34
2018-06-21T23:44:27.893Z,100959.69
2018-06-21T23:47:31.093Z,100955.88
2018-06-21T23:50:34.279Z,100958.17
2018-06-21T23:53:37.470Z,100961.96
2018-06-21T23:56:41.482Z,100941.39
2018-06-21T23:59:44.665Z,100947.49
